C2 — ZCYD3 — position and weather

sailwx.info

Track history (hours):
 
Tides and Currents Weather Stations Pressure Air Temp Water Temp Dewpoint Dewpoint Depression Visibility Wind Speed Wind Dir Waves Ship Positions

C2

Last reported at 2014-Sep-01 12:28 UTC. Time now 2014-Sep-23 04:26 UTC.
Position N 43°05' E 005°44'.
Warning: this ship's position is 21 days out of date.

Length 79 m; draft 3.2 m.

Type: Pleasure craft. MMSI: 319268000.

Date/timePositionNaut miles runAvg speedWind from/ knotsBaromVisibWave heightAir tempDewpointWater temp
2014-Sep-01 12:28N 43°05' E 005°44'1213.3
2014-Sep-01 11:33N 43°00' E 005°60'2613.2
2014-Sep-01 09:33N 43°05' E 006°35'1514.6
2014-Sep-01 08:34N 43°16' E 006°47'1413.9
2014-Sep-01 07:33N 43°26' E 007°01'1010.5
2014-Sep-01 06:33N 43°35' E 007°08'0 0.0
2014-Sep-01 05:27N 43°35' E 007°08'0 0.0
2014-Sep-01 04:33N 43°35' E 007°08'0 0.0
2014-Sep-01 03:33N 43°35' E 007°08'0 0.0
2014-Sep-01 02:33N 43°35' E 007°08'0 0.0
2014-Sep-01 01:33N 43°35' E 007°08'0 0.0
2014-Sep-01 00:15N 43°35' E 007°08'0 0.0
2014-Aug-31 23:33N 43°35' E 007°08'0 0.0
2014-Aug-31 22:33N 43°35' E 007°08'0 0.0
2014-Aug-31 21:27N 43°35' E 007°08'0 0.0
2014-Aug-31 20:27N 43°35' E 007°08'0 0.0
2014-Aug-31 19:33N 43°35' E 007°08'0 0.0
2014-Aug-31 18:33N 43°35' E 007°08'0 0.0
2014-Aug-31 17:33N 43°35' E 007°08'0 0.0
2014-Aug-31 16:33N 43°35' E 007°08'0 0.0
2014-Aug-31 15:33N 43°35' E 007°08'0 0.0
2014-Aug-31 14:28N 43°35' E 007°08'0 0.0
2014-Aug-31 13:22N 43°35' E 007°08'2 2.8
2014-Aug-31 12:33N 43°37' E 007°10'2 2.0
2014-Aug-31 11:29N 43°39' E 007°11'0 0.0
2014-Aug-31 10:32N 43°39' E 007°11'1110.8
2014-Aug-31 09:33N 43°30' E 007°04'2 0.6
2014-Aug-31 06:33N 43°31' E 007°02'0 0.0
2014-Aug-31 03:09N 43°31' E 007°02'0 0.0
2014-Aug-31 02:15N 43°31' E 007°02'0 0.0
2014-Aug-31 01:09N 43°31' E 007°02'0 0.0
2014-Aug-31 00:15N 43°31' E 007°02'0 0.0
2014-Aug-30 23:33N 43°31' E 007°02'0 0.0
2014-Aug-30 22:33N 43°31' E 007°02'0 0.0
2014-Aug-30 21:21N 43°31' E 007°02'0 0.0
2014-Aug-30 20:30N 43°31' E 007°02'0 0.0
2014-Aug-30 19:27N 43°31' E 007°02'0 0.0
2014-Aug-30 17:33N 43°31' E 007°02'0 0.0
2014-Aug-30 16:33N 43°31' E 007°02'0 0.0
2014-Aug-30 15:33N 43°31' E 007°02'0 0.0
2014-Aug-30 14:09N 43°31' E 007°02'0 0.0
2014-Aug-30 13:33N 43°31' E 007°02'2 1.5
2014-Aug-30 12:26N 43°31' E 007°04'0 0.0
2014-Aug-30 09:32N 43°31' E 007°04'0 0.0
2014-Aug-30 07:14N 43°31' E 007°04'0 0.1
2014-Aug-30 06:33N 43°31' E 007°04'3414.4
2014-Aug-30 04:13N 43°44' E 007°47'1014.9
2014-Aug-30 03:33N 43°49' E 007°59'1514.7
2014-Aug-30 02:34N 43°56' E 008°17'1414.5
2014-Aug-30 01:33N 44°02' E 008°35'1414.4
2014-Aug-30 00:34N 44°09' E 008°53'1514.5
2014-Aug-29 23:34N 44°16' E 009°11'3 2.8
2014-Aug-29 22:28N 44°18' E 009°13'0 0.0
2014-Aug-29 21:28N 44°18' E 009°13'0 0.0
2014-Aug-29 20:31N 44°18' E 009°13'0 0.0
2014-Aug-29 19:28N 44°18' E 009°13'0 0.0
2014-Aug-29 18:25N 44°18' E 009°13'0 0.0
2014-Aug-29 17:28N 44°18' E 009°13'0 0.0
2014-Aug-29 16:28N 44°18' E 009°13'0 0.0
2014-Aug-29 12:28N 44°19' E 009°13'0 0.0
2014-Aug-29 11:31N 44°19' E 009°13'0 0.0
2014-Aug-29 10:31N 44°19' E 009°13'0 0.0
2014-Aug-29 09:31N 44°18' E 009°13'31 2.4
2014-Aug-28 20:31N 44°03' E 009°51'0 0.0
2014-Aug-28 19:31N 44°03' E 009°51'0 0.0
2014-Aug-28 18:31N 44°03' E 009°51'0 0.0
2014-Aug-28 17:31N 44°03' E 009°51'0 0.0
2014-Aug-28 16:31N 44°03' E 009°51'0 0.0
2014-Aug-28 15:31N 44°03' E 009°51'0 0.0
2014-Aug-28 14:31N 44°03' E 009°51'0 0.0
2014-Aug-28 13:31N 44°03' E 009°51'0 0.0
2014-Aug-28 12:31N 44°03' E 009°51'0 0.0
2014-Aug-28 11:31N 44°03' E 009°51'0 0.0
2014-Aug-28 10:31N 44°03' E 009°51'0 0.0
2014-Aug-28 09:31N 44°03' E 009°51'0 0.1
2014-Aug-28 08:31N 44°03' E 009°51'0 0.0
2014-Aug-28 07:25N 44°03' E 009°51'0 0.1
2014-Aug-28 06:33N 44°03' E 009°51'1211.6
2014-Aug-28 05:34N 43°53' E 009°58'1413.8
2014-Aug-28 04:33N 43°40' E 010°05'1313.0
2014-Aug-28 03:32N 43°27' E 010°07'39 3.9
2014-Aug-27 17:32N 42°49' E 010°20'22 2.2
2014-Aug-27 07:15N 42°54' E 009°50'16 5.7
2014-Aug-27 04:23N 42°49' E 010°12'3 3.2
2014-Aug-27 03:26N 42°48' E 010°15'0 0.0
2014-Aug-27 02:11N 42°48' E 010°16'0 0.0
2014-Aug-26 17:14N 42°48' E 010°16'0 0.0
2014-Aug-26 16:32N 42°48' E 010°15'4 2.9
2014-Aug-26 15:03N 42°49' E 010°21'0 0.0
2014-Aug-26 14:33N 42°49' E 010°21'0 0.0
2014-Aug-26 13:21N 42°49' E 010°21'  
Track history (hours):
 
Tides and Currents Weather Stations Pressure Air Temp Water Temp Dewpoint Dewpoint Depression Visibility Wind Speed Wind Dir Waves Ship Positions

C2

Last reported at 2014-Sep-01 12:28 UTC. Time now 2014-Sep-23 04:26 UTC.
Position N 43°05' E 005°44'.
Warning: this ship's position is 21 days out of date.

Length 79 m; draft 3.2 m.

Type: Pleasure craft. MMSI: 319268000.

Date/timePositionNaut miles runAvg speedWind from/ knotsBaromVisibWave heightAir tempDewpointWater temp
2014-Sep-01 12:28N 43°05' E 005°44'1213.3
2014-Sep-01 11:33N 43°00' E 005°60'2613.2
2014-Sep-01 09:33N 43°05' E 006°35'1514.6
2014-Sep-01 08:34N 43°16' E 006°47'1413.9
2014-Sep-01 07:33N 43°26' E 007°01'1010.5
2014-Sep-01 06:33N 43°35' E 007°08'0 0.0
2014-Sep-01 05:27N 43°35' E 007°08'0 0.0
2014-Sep-01 04:33N 43°35' E 007°08'0 0.0
2014-Sep-01 03:33N 43°35' E 007°08'0 0.0
2014-Sep-01 02:33N 43°35' E 007°08'0 0.0
2014-Sep-01 01:33N 43°35' E 007°08'0 0.0
2014-Sep-01 00:15N 43°35' E 007°08'0 0.0
2014-Aug-31 23:33N 43°35' E 007°08'0 0.0
2014-Aug-31 22:33N 43°35' E 007°08'0 0.0
2014-Aug-31 21:27N 43°35' E 007°08'0 0.0
2014-Aug-31 20:27N 43°35' E 007°08'0 0.0
2014-Aug-31 19:33N 43°35' E 007°08'0 0.0
2014-Aug-31 18:33N 43°35' E 007°08'0 0.0
2014-Aug-31 17:33N 43°35' E 007°08'0 0.0
2014-Aug-31 16:33N 43°35' E 007°08'0 0.0
2014-Aug-31 15:33N 43°35' E 007°08'0 0.0
2014-Aug-31 14:28N 43°35' E 007°08'0 0.0
2014-Aug-31 13:22N 43°35' E 007°08'2 2.8
2014-Aug-31 12:33N 43°37' E 007°10'2 2.0
2014-Aug-31 11:29N 43°39' E 007°11'0 0.0
2014-Aug-31 10:32N 43°39' E 007°11'1110.8
2014-Aug-31 09:33N 43°30' E 007°04'2 0.6
2014-Aug-31 06:33N 43°31' E 007°02'0 0.0
2014-Aug-31 03:09N 43°31' E 007°02'0 0.0
2014-Aug-31 02:15N 43°31' E 007°02'0 0.0
2014-Aug-31 01:09N 43°31' E 007°02'0 0.0
2014-Aug-31 00:15N 43°31' E 007°02'0 0.0
2014-Aug-30 23:33N 43°31' E 007°02'0 0.0
2014-Aug-30 22:33N 43°31' E 007°02'0 0.0
2014-Aug-30 21:21N 43°31' E 007°02'0 0.0
2014-Aug-30 20:30N 43°31' E 007°02'0 0.0
2014-Aug-30 19:27N 43°31' E 007°02'0 0.0
2014-Aug-30 17:33N 43°31' E 007°02'0 0.0
2014-Aug-30 16:33N 43°31' E 007°02'0 0.0
2014-Aug-30 15:33N 43°31' E 007°02'0 0.0
2014-Aug-30 14:09N 43°31' E 007°02'0 0.0
2014-Aug-30 13:33N 43°31' E 007°02'2 1.5
2014-Aug-30 12:26N 43°31' E 007°04'0 0.0
2014-Aug-30 09:32N 43°31' E 007°04'0 0.0
2014-Aug-30 07:14N 43°31' E 007°04'0 0.1
2014-Aug-30 06:33N 43°31' E 007°04'3414.4
2014-Aug-30 04:13N 43°44' E 007°47'1014.9
2014-Aug-30 03:33N 43°49' E 007°59'1514.7
2014-Aug-30 02:34N 43°56' E 008°17'1414.5
2014-Aug-30 01:33N 44°02' E 008°35'1414.4
2014-Aug-30 00:34N 44°09' E 008°53'1514.5
2014-Aug-29 23:34N 44°16' E 009°11'3 2.8
2014-Aug-29 22:28N 44°18' E 009°13'0 0.0
2014-Aug-29 21:28N 44°18' E 009°13'0 0.0
2014-Aug-29 20:31N 44°18' E 009°13'0 0.0
2014-Aug-29 19:28N 44°18' E 009°13'0 0.0
2014-Aug-29 18:25N 44°18' E 009°13'0 0.0
2014-Aug-29 17:28N 44°18' E 009°13'0 0.0
2014-Aug-29 16:28N 44°18' E 009°13'0 0.0
2014-Aug-29 12:28N 44°19' E 009°13'0 0.0
2014-Aug-29 11:31N 44°19' E 009°13'0 0.0
2014-Aug-29 10:31N 44°19' E 009°13'0 0.0
2014-Aug-29 09:31N 44°18' E 009°13'31 2.4
2014-Aug-28 20:31N 44°03' E 009°51'0 0.0
2014-Aug-28 19:31N 44°03' E 009°51'0 0.0
2014-Aug-28 18:31N 44°03' E 009°51'0 0.0
2014-Aug-28 17:31N 44°03' E 009°51'0 0.0
2014-Aug-28 16:31N 44°03' E 009°51'0 0.0
2014-Aug-28 15:31N 44°03' E 009°51'0 0.0
2014-Aug-28 14:31N 44°03' E 009°51'0 0.0
2014-Aug-28 13:31N 44°03' E 009°51'0 0.0
2014-Aug-28 12:31N 44°03' E 009°51'0 0.0
2014-Aug-28 11:31N 44°03' E 009°51'0 0.0
2014-Aug-28 10:31N 44°03' E 009°51'0 0.0
2014-Aug-28 09:31N 44°03' E 009°51'0 0.1
2014-Aug-28 08:31N 44°03' E 009°51'0 0.0
2014-Aug-28 07:25N 44°03' E 009°51'0 0.1
2014-Aug-28 06:33N 44°03' E 009°51'1211.6
2014-Aug-28 05:34N 43°53' E 009°58'1413.8
2014-Aug-28 04:33N 43°40' E 010°05'1313.0
2014-Aug-28 03:32N 43°27' E 010°07'39 3.9
2014-Aug-27 17:32N 42°49' E 010°20'22 2.2
2014-Aug-27 07:15N 42°54' E 009°50'16 5.7
2014-Aug-27 04:23N 42°49' E 010°12'3 3.2
2014-Aug-27 03:26N 42°48' E 010°15'0 0.0
2014-Aug-27 02:11N 42°48' E 010°16'0 0.0
2014-Aug-26 17:14N 42°48' E 010°16'0 0.0
2014-Aug-26 16:32N 42°48' E 010°15'4 2.9
2014-Aug-26 15:03N 42°49' E 010°21'0 0.0
2014-Aug-26 14:33N 42°49' E 010°21'0 0.0
2014-Aug-26 13:21N 42°49' E 010°21'  

Dump ship's entire track history